sensor_id;sensor_type;location;lat;lon;timestamp;P1;durP1;ratioP1;P2;durP2;ratioP2
36379;SDS011;22411;53.016;18.632;2023-03-01T00:01:13;40.67;;;21.00;;
36379;SDS011;22411;53.016;18.632;2023-03-01T00:03:41;38.67;;;22.40;;
36379;SDS011;22411;53.016;18.632;2023-03-01T00:06:08;36.67;;;19.47;;
36379;SDS011;22411;53.016;18.632;2023-03-01T00:08:35;36.70;;;18.30;;
36379;SDS011;22411;53.016;18.632;2023-03-01T00:13:47;34.40;;;18.77;;
36379;SDS011;22411;53.016;18.632;2023-03-01T00:16:16;34.40;;;19.93;;
36379;SDS011;22411;53.016;18.632;2023-03-01T00:18:44;35.73;;;19.70;;
36379;SDS011;22411;53.016;18.632;2023-03-01T00:21:10;31.90;;;18.30;;
36379;SDS011;22411;53.016;18.632;2023-03-01T00:23:36;30.17;;;15.87;;
36379;SDS011;22411;53.016;18.632;2023-03-01T00:26:06;30.83;;;17.93;;
36379;SDS011;22411;53.016;18.632;2023-03-01T00:28:35;26.53;;;15.53;;
36379;SDS011;22411;53.016;18.632;2023-03-01T00:31:20;34.83;;;17.70;;
36379;SDS011;22411;53.016;18.632;2023-03-01T00:33:48;37.97;;;18.93;;
36379;SDS011;22411;53.016;18.632;2023-03-01T00:36:17;37.53;;;19.30;;
36379;SDS011;22411;53.016;18.632;2023-03-01T00:38:44;41.57;;;21.40;;
36379;SDS011;22411;53.016;18.632;2023-03-01T00:41:11;36.97;;;20.73;;
36379;SDS011;22411;53.016;18.632;2023-03-01T00:43:40;37.70;;;19.63;;
36379;SDS011;22411;53.016;18.632;2023-03-01T00:46:07;37.83;;;20.47;;
36379;SDS011;22411;53.016;18.632;2023-03-01T00:48:35;33.33;;;17.87;;
36379;SDS011;22411;53.016;18.632;2023-03-01T00:51:11;34.83;;;19.57;;
36379;SDS011;22411;53.016;18.632;2023-03-01T00:56:09;33.07;;;17.67;;
36379;SDS011;22411;53.016;18.632;2023-03-01T00:58:37;34.90;;;18.77;;
36379;SDS011;22411;53.016;18.632;2023-03-01T01:01:07;41.73;;;20.73;;
36379;SDS011;22411;53.016;18.632;2023-03-01T01:03:52;39.80;;;20.73;;
36379;SDS011;22411;53.016;18.632;2023-03-01T01:06:23;42.27;;;21.10;;
36379;SDS011;22411;53.016;18.632;2023-03-01T01:08:51;42.37;;;20.50;;
36379;SDS011;22411;53.016;18.632;2023-03-01T01:11:18;38.57;;;22.30;;
36379;SDS011;22411;53.016;18.632;2023-03-01T01:13:46;44.70;;;21.03;;
36379;SDS011;22411;53.016;18.632;2023-03-01T01:16:13;38.73;;;19.87;;
36379;SDS011;22411;53.016;18.632;2023-03-01T01:18:39;39.83;;;20.07;;
36379;SDS011;22411;53.016;18.632;2023-03-01T01:21:06;37.73;;;18.73;;
36379;SDS011;22411;53.016;18.632;2023-03-01T01:23:34;36.10;;;19.53;;
36379;SDS011;22411;53.016;18.632;2023-03-01T01:26:03;34.50;;;18.27;;
36379;SDS011;22411;53.016;18.632;2023-03-01T01:28:31;33.13;;;19.88;;
36379;SDS011;22411;53.016;18.632;2023-03-01T01:30:57;40.10;;;20.20;;
36379;SDS011;22411;53.016;18.632;2023-03-01T01:33:23;33.23;;;19.37;;
36379;SDS011;22411;53.016;18.632;2023-03-01T01:35:49;37.50;;;20.13;;
36379;SDS011;22411;53.016;18.632;2023-03-01T01:38:15;36.30;;;19.80;;
36379;SDS011;22411;53.016;18.632;2023-03-01T01:40:44;35.23;;;19.03;;
36379;SDS011;22411;53.016;18.632;2023-03-01T01:43:16;35.13;;;17.88;;
36379;SDS011;22411;53.016;18.632;2023-03-01T01:45:45;32.73;;;18.97;;
36379;SDS011;22411;53.016;18.632;2023-03-01T01:48:13;36.97;;;19.60;;
36379;SDS011;22411;53.016;18.632;2023-03-01T01:50:43;30.83;;;17.13;;
36379;SDS011;22411;53.016;18.632;2023-03-01T01:53:17;30.40;;;16.97;;
36379;SDS011;22411;53.016;18.632;2023-03-01T01:55:48;30.73;;;17.53;;
36379;SDS011;22411;53.016;18.632;2023-03-01T01:58:20;30.90;;;16.90;;
36379;SDS011;22411;53.016;18.632;2023-03-01T02:00:47;29.83;;;16.90;;
36379;SDS011;22411;53.016;18.632;2023-03-01T02:03:15;31.03;;;16.70;;
36379;SDS011;22411;53.016;18.632;2023-03-01T02:08:20;26.60;;;14.77;;
36379;SDS011;22411;53.016;18.632;2023-03-01T02:10:48;39.47;;;21.67;;
36379;SDS011;22411;53.016;18.632;2023-03-01T02:13:16;34.77;;;20.97;;
36379;SDS011;22411;53.016;18.632;2023-03-01T02:15:42;33.80;;;22.00;;
36379;SDS011;22411;53.016;18.632;2023-03-01T02:18:10;33.13;;;18.03;;
36379;SDS011;22411;53.016;18.632;2023-03-01T02:23:17;33.17;;;18.13;;
36379;SDS011;22411;53.016;18.632;2023-03-01T02:30:49;37.33;;;19.10;;
36379;SDS011;22411;53.016;18.632;2023-03-01T02:33:36;35.37;;;18.70;;
36379;SDS011;22411;53.016;18.632;2023-03-01T02:36:14;38.07;;;18.57;;
36379;SDS011;22411;53.016;18.632;2023-03-01T02:38:43;30.93;;;17.00;;
36379;SDS011;22411;53.016;18.632;2023-03-01T02:41:10;31.63;;;17.07;;
36379;SDS011;22411;53.016;18.632;2023-03-01T02:43:40;28.25;;;16.60;;
36379;SDS011;22411;53.016;18.632;2023-03-01T02:46:14;30.13;;;15.60;;
36379;SDS011;22411;53.016;18.632;2023-03-01T02:48:47;39.23;;;17.83;;
36379;SDS011;22411;53.016;18.632;2023-03-01T02:53:55;31.70;;;17.03;;
36379;SDS011;22411;53.016;18.632;2023-03-01T02:56:41;29.65;;;17.08;;
36379;SDS011;22411;53.016;18.632;2023-03-01T02:59:09;33.50;;;17.63;;
36379;SDS011;22411;53.016;18.632;2023-03-01T03:01:36;31.40;;;16.73;;
36379;SDS011;22411;53.016;18.632;2023-03-01T03:04:06;34.23;;;16.87;;
36379;SDS011;22411;53.016;18.632;2023-03-01T03:06:33;29.55;;;16.92;;
36379;SDS011;22411;53.016;18.632;2023-03-01T03:08:59;38.87;;;18.67;;
36379;SDS011;22411;53.016;18.632;2023-03-01T03:11:25;33.60;;;19.67;;
36379;SDS011;22411;53.016;18.632;2023-03-01T03:13:52;36.40;;;18.43;;
36379;SDS011;22411;53.016;18.632;2023-03-01T03:16:18;38.87;;;21.30;;
36379;SDS011;22411;53.016;18.632;2023-03-01T03:18:45;42.80;;;22.17;;
36379;SDS011;22411;53.016;18.632;2023-03-01T03:21:12;36.40;;;19.63;;
36379;SDS011;22411;53.016;18.632;2023-03-01T03:23:39;34.67;;;20.33;;
36379;SDS011;22411;53.016;18.632;2023-03-01T03:26:04;39.93;;;21.60;;
36379;SDS011;22411;53.016;18.632;2023-03-01T03:28:31;41.97;;;20.00;;
36379;SDS011;22411;53.016;18.632;2023-03-01T03:30:58;40.53;;;21.13;;
36379;SDS011;22411;53.016;18.632;2023-03-01T03:33:31;43.72;;;21.95;;
36379;SDS011;22411;53.016;18.632;2023-03-01T03:35:58;38.47;;;21.40;;
36379;SDS011;22411;53.016;18.632;2023-03-01T03:38:24;40.57;;;20.90;;
36379;SDS011;22411;53.016;18.632;2023-03-01T03:40:55;40.07;;;21.97;;
36379;SDS011;22411;53.016;18.632;2023-03-01T03:43:28;38.10;;;21.40;;
36379;SDS011;22411;53.016;18.632;2023-03-01T03:45:55;43.57;;;23.70;;
36379;SDS011;22411;53.016;18.632;2023-03-01T03:48:23;41.67;;;22.30;;
36379;SDS011;22411;53.016;18.632;2023-03-01T03:50:50;44.23;;;21.97;;
36379;SDS011;22411;53.016;18.632;2023-03-01T03:53:18;43.33;;;21.97;;
36379;SDS011;22411;53.016;18.632;2023-03-01T03:55:45;38.63;;;21.30;;
36379;SDS011;22411;53.016;18.632;2023-03-01T03:58:15;43.47;;;22.90;;
36379;SDS011;22411;53.016;18.632;2023-03-01T04:00:42;42.20;;;22.83;;
36379;SDS011;22411;53.016;18.632;2023-03-01T04:03:11;46.40;;;22.13;;
36379;SDS011;22411;53.016;18.632;2023-03-01T04:05:38;42.43;;;22.33;;
36379;SDS011;22411;53.016;18.632;2023-03-01T04:08:05;44.43;;;22.17;;
36379;SDS011;22411;53.016;18.632;2023-03-01T04:10:44;39.90;;;21.43;;
36379;SDS011;22411;53.016;18.632;2023-03-01T04:13:12;36.63;;;20.13;;
36379;SDS011;22411;53.016;18.632;2023-03-01T04:15:40;39.13;;;20.67;;
36379;SDS011;22411;53.016;18.632;2023-03-01T04:18:06;45.40;;;21.23;;
36379;SDS011;22411;53.016;18.632;2023-03-01T04:20:33;48.93;;;25.33;;
36379;SDS011;22411;53.016;18.632;2023-03-01T04:23:01;60.90;;;25.80;;
36379;SDS011;22411;53.016;18.632;2023-03-01T04:25:46;60.70;;;25.63;;
36379;SDS011;22411;53.016;18.632;2023-03-01T04:28:20;50.13;;;21.80;;
36379;SDS011;22411;53.016;18.632;2023-03-01T04:30:46;47.67;;;21.43;;
36379;SDS011;22411;53.016;18.632;2023-03-01T04:33:12;40.37;;;21.93;;
36379;SDS011;22411;53.016;18.632;2023-03-01T04:35:38;38.73;;;20.77;;
36379;SDS011;22411;53.016;18.632;2023-03-01T04:38:05;45.40;;;21.10;;
36379;SDS011;22411;53.016;18.632;2023-03-01T04:40:31;36.70;;;19.83;;
36379;SDS011;22411;53.016;18.632;2023-03-01T04:42:58;41.97;;;22.03;;
36379;SDS011;22411;53.016;18.632;2023-03-01T04:45:24;44.60;;;21.27;;
36379;SDS011;22411;53.016;18.632;2023-03-01T04:47:50;37.67;;;20.20;;
36379;SDS011;22411;53.016;18.632;2023-03-01T04:50:19;44.90;;;22.77;;
36379;SDS011;22411;53.016;18.632;2023-03-01T04:52:47;40.13;;;20.77;;
36379;SDS011;22411;53.016;18.632;2023-03-01T04:55:13;44.53;;;23.17;;
36379;SDS011;22411;53.016;18.632;2023-03-01T04:57:39;42.83;;;23.17;;
36379;SDS011;22411;53.016;18.632;2023-03-01T05:00:06;45.30;;;23.10;;
36379;SDS011;22411;53.016;18.632;2023-03-01T05:02:56;43.80;;;23.40;;
36379;SDS011;22411;53.016;18.632;2023-03-01T05:05:31;48.50;;;24.87;;
36379;SDS011;22411;53.016;18.632;2023-03-01T05:08:00;45.13;;;24.37;;
36379;SDS011;22411;53.016;18.632;2023-03-01T05:10:28;44.23;;;22.93;;
36379;SDS011;22411;53.016;18.632;2023-03-01T05:12:56;50.87;;;24.83;;
36379;SDS011;22411;53.016;18.632;2023-03-01T05:15:24;50.30;;;25.53;;
36379;SDS011;22411;53.016;18.632;2023-03-01T05:17:54;46.90;;;22.93;;
36379;SDS011;22411;53.016;18.632;2023-03-01T05:20:21;46.60;;;22.43;;
36379;SDS011;22411;53.016;18.632;2023-03-01T05:22:51;45.67;;;22.70;;
36379;SDS011;22411;53.016;18.632;2023-03-01T05:25:19;47.73;;;23.23;;
36379;SDS011;22411;53.016;18.632;2023-03-01T05:27:47;42.00;;;22.70;;
36379;SDS011;22411;53.016;18.632;2023-03-01T05:30:13;58.27;;;26.90;;
36379;SDS011;22411;53.016;18.632;2023-03-01T05:32:41;52.50;;;26.07;;
36379;SDS011;22411;53.016;18.632;2023-03-01T05:35:09;49.67;;;24.07;;
36379;SDS011;22411;53.016;18.632;2023-03-01T05:37:43;45.10;;;23.77;;
36379;SDS011;22411;53.016;18.632;2023-03-01T05:40:11;49.72;;;25.90;;
36379;SDS011;22411;53.016;18.632;2023-03-01T05:42:44;49.67;;;23.95;;
36379;SDS011;22411;53.016;18.632;2023-03-01T05:45:12;53.33;;;23.80;;
36379;SDS011;22411;53.016;18.632;2023-03-01T05:47:42;48.90;;;24.00;;
36379;SDS011;22411;53.016;18.632;2023-03-01T05:50:13;48.75;;;24.02;;
36379;SDS011;22411;53.016;18.632;2023-03-01T05:52:51;50.30;;;25.47;;
36379;SDS011;22411;53.016;18.632;2023-03-01T05:55:25;48.57;;;24.20;;
36379;SDS011;22411;53.016;18.632;2023-03-01T05:57:52;47.63;;;24.67;;
36379;SDS011;22411;53.016;18.632;2023-03-01T06:00:18;41.60;;;24.27;;
36379;SDS011;22411;53.016;18.632;2023-03-01T06:02:48;41.38;;;22.55;;
36379;SDS011;22411;53.016;18.632;2023-03-01T06:05:14;44.43;;;22.47;;
36379;SDS011;22411;53.016;18.632;2023-03-01T06:07:41;50.33;;;24.23;;
36379;SDS011;22411;53.016;18.632;2023-03-01T06:10:08;42.87;;;21.80;;
36379;SDS011;22411;53.016;18.632;2023-03-01T06:12:35;40.63;;;21.83;;
36379;SDS011;22411;53.016;18.632;2023-03-01T06:15:03;36.13;;;21.80;;
36379;SDS011;22411;53.016;18.632;2023-03-01T06:17:30;42.23;;;20.10;;
36379;SDS011;22411;53.016;18.632;2023-03-01T06:19:58;44.70;;;22.47;;
36379;SDS011;22411;53.016;18.632;2023-03-01T06:22:26;36.50;;;20.57;;
36379;SDS011;22411;53.016;18.632;2023-03-01T06:24:53;42.40;;;21.53;;
36379;SDS011;22411;53.016;18.632;2023-03-01T06:27:18;42.00;;;18.50;;
36379;SDS011;22411;53.016;18.632;2023-03-01T06:29:45;34.93;;;18.93;;
36379;SDS011;22411;53.016;18.632;2023-03-01T06:32:11;42.60;;;20.77;;
36379;SDS011;22411;53.016;18.632;2023-03-01T06:34:38;41.03;;;21.33;;
36379;SDS011;22411;53.016;18.632;2023-03-01T06:37:05;33.80;;;19.83;;
36379;SDS011;22411;53.016;18.632;2023-03-01T06:39:32;36.67;;;19.77;;
36379;SDS011;22411;53.016;18.632;2023-03-01T06:41:58;42.87;;;19.00;;
36379;SDS011;22411;53.016;18.632;2023-03-01T06:44:25;37.37;;;19.67;;
36379;SDS011;22411;53.016;18.632;2023-03-01T06:46:51;37.73;;;19.37;;
36379;SDS011;22411;53.016;18.632;2023-03-01T06:49:19;28.90;;;16.67;;
36379;SDS011;22411;53.016;18.632;2023-03-01T06:51:46;32.53;;;18.47;;
36379;SDS011;22411;53.016;18.632;2023-03-01T06:54:13;37.23;;;19.57;;
36379;SDS011;22411;53.016;18.632;2023-03-01T06:56:39;38.30;;;20.57;;
36379;SDS011;22411;53.016;18.632;2023-03-01T06:59:05;41.93;;;21.43;;
36379;SDS011;22411;53.016;18.632;2023-03-01T07:01:32;44.53;;;21.13;;
36379;SDS011;22411;53.016;18.632;2023-03-01T07:04:00;33.00;;;20.33;;
36379;SDS011;22411;53.016;18.632;2023-03-01T07:06:26;34.00;;;18.47;;
36379;SDS011;22411;53.016;18.632;2023-03-01T07:08:52;36.27;;;19.30;;
36379;SDS011;22411;53.016;18.632;2023-03-01T07:11:18;34.90;;;17.97;;
36379;SDS011;22411;53.016;18.632;2023-03-01T07:13:44;34.27;;;19.87;;
36379;SDS011;22411;53.016;18.632;2023-03-01T07:16:10;37.73;;;17.80;;
36379;SDS011;22411;53.016;18.632;2023-03-01T07:18:36;37.13;;;18.77;;
36379;SDS011;22411;53.016;18.632;2023-03-01T07:21:06;37.33;;;19.10;;
36379;SDS011;22411;53.016;18.632;2023-03-01T07:26:00;30.97;;;17.07;;
36379;SDS011;22411;53.016;18.632;2023-03-01T07:28:26;36.57;;;20.17;;
36379;SDS011;22411;53.016;18.632;2023-03-01T07:31:02;33.97;;;18.97;;
36379;SDS011;22411;53.016;18.632;2023-03-01T07:33:28;33.97;;;19.17;;
36379;SDS011;22411;53.016;18.632;2023-03-01T07:35:58;32.47;;;17.23;;
36379;SDS011;22411;53.016;18.632;2023-03-01T07:38:27;30.70;;;16.87;;
36379;SDS011;22411;53.016;18.632;2023-03-01T07:40:57;28.27;;;16.20;;
36379;SDS011;22411;53.016;18.632;2023-03-01T07:43:26;35.33;;;18.83;;
36379;SDS011;22411;53.016;18.632;2023-03-01T07:45:57;32.17;;;18.47;;
36379;SDS011;22411;53.016;18.632;2023-03-01T07:48:25;33.67;;;18.60;;
36379;SDS011;22411;53.016;18.632;2023-03-01T07:50:51;32.80;;;18.43;;
36379;SDS011;22411;53.016;18.632;2023-03-01T07:53:17;32.53;;;21.27;;
36379;SDS011;22411;53.016;18.632;2023-03-01T07:55:44;32.60;;;20.23;;
36379;SDS011;22411;53.016;18.632;2023-03-01T07:58:10;29.60;;;16.10;;
36379;SDS011;22411;53.016;18.632;2023-03-01T08:00:36;27.90;;;14.97;;
36379;SDS011;22411;53.016;18.632;2023-03-01T08:03:02;25.17;;;14.07;;
36379;SDS011;22411;53.016;18.632;2023-03-01T08:05:28;27.30;;;13.17;;
36379;SDS011;22411;53.016;18.632;2023-03-01T08:07:54;29.93;;;14.33;;
36379;SDS011;22411;53.016;18.632;2023-03-01T08:10:21;27.30;;;13.63;;
36379;SDS011;22411;53.016;18.632;2023-03-01T08:12:47;25.13;;;12.40;;
36379;SDS011;22411;53.016;18.632;2023-03-01T08:15:13;29.73;;;16.27;;
36379;SDS011;22411;53.016;18.632;2023-03-01T08:17:39;34.60;;;21.97;;
36379;SDS011;22411;53.016;18.632;2023-03-01T08:20:06;24.73;;;12.57;;
36379;SDS011;22411;53.016;18.632;2023-03-01T08:22:32;31.70;;;26.33;;
36379;SDS011;22411;53.016;18.632;2023-03-01T08:24:58;23.27;;;11.70;;
36379;SDS011;22411;53.016;18.632;2023-03-01T08:27:24;19.30;;;12.43;;
36379;SDS011;22411;53.016;18.632;2023-03-01T08:29:51;29.57;;;17.00;;
36379;SDS011;22411;53.016;18.632;2023-03-01T08:32:17;23.53;;;16.30;;
36379;SDS011;22411;53.016;18.632;2023-03-01T08:34:45;24.63;;;13.70;;
36379;SDS011;22411;53.016;18.632;2023-03-01T08:37:12;25.17;;;12.90;;
36379;SDS011;22411;53.016;18.632;2023-03-01T08:39:38;29.57;;;13.27;;
36379;SDS011;22411;53.016;18.632;2023-03-01T08:42:04;22.13;;;12.67;;
36379;SDS011;22411;53.016;18.632;2023-03-01T08:44:30;22.40;;;12.27;;
36379;SDS011;22411;53.016;18.632;2023-03-01T08:46:56;26.93;;;13.87;;
36379;SDS011;22411;53.016;18.632;2023-03-01T08:49:23;25.00;;;12.23;;
36379;SDS011;22411;53.016;18.632;2023-03-01T08:51:49;26.10;;;17.53;;
36379;SDS011;22411;53.016;18.632;2023-03-01T08:54:19;21.77;;;12.90;;
36379;SDS011;22411;53.016;18.632;2023-03-01T08:56:46;29.75;;;12.27;;
36379;SDS011;22411;53.016;18.632;2023-03-01T08:59:13;25.77;;;14.80;;
36379;SDS011;22411;53.016;18.632;2023-03-01T09:01:40;23.23;;;12.63;;
36379;SDS011;22411;53.016;18.632;2023-03-01T09:04:09;20.33;;;11.43;;
36379;SDS011;22411;53.016;18.632;2023-03-01T09:06:36;20.43;;;11.53;;
36379;SDS011;22411;53.016;18.632;2023-03-01T09:09:03;24.70;;;13.17;;
36379;SDS011;22411;53.016;18.632;2023-03-01T09:11:31;19.97;;;12.40;;
36379;SDS011;22411;53.016;18.632;2023-03-01T09:13:57;20.40;;;12.23;;
36379;SDS011;22411;53.016;18.632;2023-03-01T09:16:23;54.23;;;22.77;;
36379;SDS011;22411;53.016;18.632;2023-03-01T09:18:50;24.30;;;12.47;;
36379;SDS011;22411;53.016;18.632;2023-03-01T09:21:18;55.20;;;25.10;;
36379;SDS011;22411;53.016;18.632;2023-03-01T09:23:47;23.40;;;14.27;;
36379;SDS011;22411;53.016;18.632;2023-03-01T09:26:14;16.00;;;10.70;;
36379;SDS011;22411;53.016;18.632;2023-03-01T09:28:48;18.30;;;11.18;;
36379;SDS011;22411;53.016;18.632;2023-03-01T09:31:16;21.15;;;12.10;;
36379;SDS011;22411;53.016;18.632;2023-03-01T09:33:45;26.92;;;13.07;;
36379;SDS011;22411;53.016;18.632;2023-03-01T09:36:17;17.13;;;10.85;;
36379;SDS011;22411;53.016;18.632;2023-03-01T09:38:46;21.83;;;12.23;;
36379;SDS011;22411;53.016;18.632;2023-03-01T09:43:50;19.30;;;16.13;;
36379;SDS011;22411;53.016;18.632;2023-03-01T09:46:20;23.10;;;16.05;;
36379;SDS011;22411;53.016;18.632;2023-03-01T09:48:50;19.42;;;12.73;;
36379;SDS011;22411;53.016;18.632;2023-03-01T09:51:40;16.90;;;11.40;;
36379;SDS011;22411;53.016;18.632;2023-03-01T09:54:08;17.77;;;12.57;;
36379;SDS011;22411;53.016;18.632;2023-03-01T10:05:05;21.48;;;14.23;;
36379;SDS011;22411;53.016;18.632;2023-03-01T10:10:28;26.20;;;15.63;;
36379;SDS011;22411;53.016;18.632;2023-03-01T10:13:01;22.48;;;14.05;;
36379;SDS011;22411;53.016;18.632;2023-03-01T10:15:39;18.35;;;11.93;;
36379;SDS011;22411;53.016;18.632;2023-03-01T10:18:14;25.73;;;20.20;;
36379;SDS011;22411;53.016;18.632;2023-03-01T10:20:58;26.38;;;15.27;;
36379;SDS011;22411;53.016;18.632;2023-03-01T10:23:26;16.65;;;11.18;;
36379;SDS011;22411;53.016;18.632;2023-03-01T10:26:38;17.17;;;9.57;;
36379;SDS011;22411;53.016;18.632;2023-03-01T10:31:20;16.13;;;10.20;;
36379;SDS011;22411;53.016;18.632;2023-03-01T10:33:53;20.00;;;12.85;;
36379;SDS011;22411;53.016;18.632;2023-03-01T10:36:21;17.98;;;12.25;;
36379;SDS011;22411;53.016;18.632;2023-03-01T10:38:50;18.38;;;14.95;;
36379;SDS011;22411;53.016;18.632;2023-03-01T10:43:55;15.32;;;10.07;;
36379;SDS011;22411;53.016;18.632;2023-03-01T10:46:33;19.48;;;10.77;;
36379;SDS011;22411;53.016;18.632;2023-03-01T10:49:14;19.50;;;10.80;;
36379;SDS011;22411;53.016;18.632;2023-03-01T10:51:43;22.00;;;13.55;;
36379;SDS011;22411;53.016;18.632;2023-03-01T10:54:18;24.77;;;16.67;;
36379;SDS011;22411;53.016;18.632;2023-03-01T10:56:54;16.70;;;10.57;;
36379;SDS011;22411;53.016;18.632;2023-03-01T11:02:03;19.88;;;10.18;;
36379;SDS011;22411;53.016;18.632;2023-03-01T11:04:55;14.85;;;9.60;;
36379;SDS011;22411;53.016;18.632;2023-03-01T11:07:48;14.55;;;8.02;;
36379;SDS011;22411;53.016;18.632;2023-03-01T11:10:29;12.32;;;8.30;;
36379;SDS011;22411;53.016;18.632;2023-03-01T11:13:07;11.82;;;8.18;;
36379;SDS011;22411;53.016;18.632;2023-03-01T11:15:57;14.60;;;8.55;;
36379;SDS011;22411;53.016;18.632;2023-03-01T11:18:25;10.93;;;7.68;;
36379;SDS011;22411;53.016;18.632;2023-03-01T11:20:54;12.52;;;7.40;;
36379;SDS011;22411;53.016;18.632;2023-03-01T11:23:21;8.70;;;5.88;;
36379;SDS011;22411;53.016;18.632;2023-03-01T11:26:07;7.95;;;5.13;;
36379;SDS011;22411;53.016;18.632;2023-03-01T11:28:36;7.28;;;5.10;;
36379;SDS011;22411;53.016;18.632;2023-03-01T11:31:07;11.10;;;6.80;;
36379;SDS011;22411;53.016;18.632;2023-03-01T11:33:46;8.65;;;4.10;;
36379;SDS011;22411;53.016;18.632;2023-03-01T11:36:18;8.18;;;5.75;;
36379;SDS011;22411;53.016;18.632;2023-03-01T11:42:25;7.32;;;6.38;;
36379;SDS011;22411;53.016;18.632;2023-03-01T11:45:06;8.55;;;7.68;;
36379;SDS011;22411;53.016;18.632;2023-03-01T11:48:10;7.95;;;5.82;;
36379;SDS011;22411;53.016;18.632;2023-03-01T12:01:26;10.15;;;6.50;;
36379;SDS011;22411;53.016;18.632;2023-03-01T12:06:48;8.73;;;5.72;;
36379;SDS011;22411;53.016;18.632;2023-03-01T12:09:21;9.07;;;6.00;;
36379;SDS011;22411;53.016;18.632;2023-03-01T12:15:07;8.38;;;6.10;;
36379;SDS011;22411;53.016;18.632;2023-03-01T12:18:20;7.38;;;5.82;;
36379;SDS011;22411;53.016;18.632;2023-03-01T12:21:13;8.48;;;5.50;;
36379;SDS011;22411;53.016;18.632;2023-03-01T12:29:30;9.18;;;5.57;;
36379;SDS011;22411;53.016;18.632;2023-03-01T12:32:10;7.38;;;5.22;;
36379;SDS011;22411;53.016;18.632;2023-03-01T12:34:47;7.32;;;5.65;;
36379;SDS011;22411;53.016;18.632;2023-03-01T12:45:51;9.93;;;6.70;;
36379;SDS011;22411;53.016;18.632;2023-03-01T12:48:40;15.38;;;11.07;;
36379;SDS011;22411;53.016;18.632;2023-03-01T12:51:26;199.68;;;106.93;;
36379;SDS011;22411;53.016;18.632;2023-03-01T12:53:55;41.80;;;25.67;;
36379;SDS011;22411;53.016;18.632;2023-03-01T12:56:25;186.80;;;112.38;;
36379;SDS011;22411;53.016;18.632;2023-03-01T13:01:44;122.55;;;67.80;;
36379;SDS011;22411;53.016;18.632;2023-03-01T13:06:54;105.22;;;64.90;;
36379;SDS011;22411;53.016;18.632;2023-03-01T13:17:52;289.65;;;168.95;;
36379;SDS011;22411;53.016;18.632;2023-03-01T13:20:20;107.63;;;64.05;;
36379;SDS011;22411;53.016;18.632;2023-03-01T13:23:01;182.30;;;115.03;;
36379;SDS011;22411;53.016;18.632;2023-03-01T13:25:30;108.43;;;67.97;;
36379;SDS011;22411;53.016;18.632;2023-03-01T13:33:46;34.45;;;25.25;;
36379;SDS011;22411;53.016;18.632;2023-03-01T13:36:46;50.70;;;25.63;;
36379;SDS011;22411;53.016;18.632;2023-03-01T13:42:32;9.90;;;6.60;;
36379;SDS011;22411;53.016;18.632;2023-03-01T13:45:05;10.80;;;6.50;;
36379;SDS011;22411;53.016;18.632;2023-03-01T13:47:42;14.82;;;9.15;;
36379;SDS011;22411;53.016;18.632;2023-03-01T13:50:16;13.80;;;7.97;;
36379;SDS011;22411;53.016;18.632;2023-03-01T13:52:57;9.20;;;7.43;;
36379;SDS011;22411;53.016;18.632;2023-03-01T13:55:37;11.37;;;7.77;;
36379;SDS011;22411;53.016;18.632;2023-03-01T14:00:58;7.57;;;5.15;;
36379;SDS011;22411;53.016;18.632;2023-03-01T14:03:29;9.50;;;5.78;;
36379;SDS011;22411;53.016;18.632;2023-03-01T14:08:25;10.77;;;7.65;;
36379;SDS011;22411;53.016;18.632;2023-03-01T14:10:54;8.55;;;6.25;;
36379;SDS011;22411;53.016;18.632;2023-03-01T14:13:52;10.70;;;5.53;;
36379;SDS011;22411;53.016;18.632;2023-03-01T14:16:36;10.70;;;5.45;;
36379;SDS011;22411;53.016;18.632;2023-03-01T14:19:25;7.95;;;5.30;;
36379;SDS011;22411;53.016;18.632;2023-03-01T14:24:31;8.80;;;5.93;;
36379;SDS011;22411;53.016;18.632;2023-03-01T14:27:10;9.95;;;5.68;;
36379;SDS011;22411;53.016;18.632;2023-03-01T14:29:38;8.73;;;5.70;;
36379;SDS011;22411;53.016;18.632;2023-03-01T14:32:18;11.70;;;5.85;;
36379;SDS011;22411;53.016;18.632;2023-03-01T14:34:47;10.48;;;5.72;;
36379;SDS011;22411;53.016;18.632;2023-03-01T14:37:28;8.10;;;5.22;;
36379;SDS011;22411;53.016;18.632;2023-03-01T14:39:57;11.52;;;6.43;;
36379;SDS011;22411;53.016;18.632;2023-03-01T14:42:25;13.77;;;8.05;;
36379;SDS011;22411;53.016;18.632;2023-03-01T14:44:55;12.50;;;6.90;;
36379;SDS011;22411;53.016;18.632;2023-03-01T14:47:30;15.38;;;8.45;;
36379;SDS011;22411;53.016;18.632;2023-03-01T14:50:03;10.98;;;9.57;;
36379;SDS011;22411;53.016;18.632;2023-03-01T14:52:34;7.15;;;4.60;;
36379;SDS011;22411;53.016;18.632;2023-03-01T14:55:05;7.72;;;5.15;;
36379;SDS011;22411;53.016;18.632;2023-03-01T14:57:42;7.68;;;5.18;;
36379;SDS011;22411;53.016;18.632;2023-03-01T15:00:20;8.55;;;6.40;;
36379;SDS011;22411;53.016;18.632;2023-03-01T15:02:50;12.47;;;6.93;;
36379;SDS011;22411;53.016;18.632;2023-03-01T15:05:24;11.95;;;6.93;;
36379;SDS011;22411;53.016;18.632;2023-03-01T15:07:55;10.20;;;6.63;;
36379;SDS011;22411;53.016;18.632;2023-03-01T15:10:25;8.45;;;5.75;;
36379;SDS011;22411;53.016;18.632;2023-03-01T15:12:54;9.77;;;5.93;;
36379;SDS011;22411;53.016;18.632;2023-03-01T15:17:50;30.77;;;18.13;;
36379;SDS011;22411;53.016;18.632;2023-03-01T15:20:20;18.25;;;10.23;;
36379;SDS011;22411;53.016;18.632;2023-03-01T15:22:51;178.98;;;83.43;;
36379;SDS011;22411;53.016;18.632;2023-03-01T15:25:19;232.52;;;99.05;;
36379;SDS011;22411;53.016;18.632;2023-03-01T15:27:48;258.13;;;106.35;;
36379;SDS011;22411;53.016;18.632;2023-03-01T15:30:23;202.63;;;79.13;;
36379;SDS011;22411;53.016;18.632;2023-03-01T15:33:17;127.40;;;49.42;;
36379;SDS011;22411;53.016;18.632;2023-03-01T15:39:05;323.70;;;138.73;;
36379;SDS011;22411;53.016;18.632;2023-03-01T15:41:52;211.35;;;98.47;;
36379;SDS011;22411;53.016;18.632;2023-03-01T15:44:28;132.85;;;61.97;;
36379;SDS011;22411;53.016;18.632;2023-03-01T15:46:56;394.90;;;197.73;;
36379;SDS011;22411;53.016;18.632;2023-03-01T15:52:03;222.15;;;122.68;;
36379;SDS011;22411;53.016;18.632;2023-03-01T15:54:31;93.40;;;49.63;;
36379;SDS011;22411;53.016;18.632;2023-03-01T15:56:57;34.15;;;17.88;;
36379;SDS011;22411;53.016;18.632;2023-03-01T15:59:26;25.08;;;13.85;;
36379;SDS011;22411;53.016;18.632;2023-03-01T16:01:53;27.48;;;15.27;;
36379;SDS011;22411;53.016;18.632;2023-03-01T16:04:20;33.40;;;19.60;;
36379;SDS011;22411;53.016;18.632;2023-03-01T16:06:50;30.92;;;15.63;;
36379;SDS011;22411;53.016;18.632;2023-03-01T16:09:21;29.38;;;15.82;;
36379;SDS011;22411;53.016;18.632;2023-03-01T16:11:48;30.50;;;16.23;;
36379;SDS011;22411;53.016;18.632;2023-03-01T16:14:15;34.88;;;17.05;;
36379;SDS011;22411;53.016;18.632;2023-03-01T16:16:42;26.00;;;16.92;;
36379;SDS011;22411;53.016;18.632;2023-03-01T16:19:09;27.73;;;16.77;;
36379;SDS011;22411;53.016;18.632;2023-03-01T16:21:36;24.33;;;15.68;;
36379;SDS011;22411;53.016;18.632;2023-03-01T16:24:03;23.50;;;14.82;;
36379;SDS011;22411;53.016;18.632;2023-03-01T16:26:31;22.63;;;14.30;;